createdAt,value
2022-10-13T00:00:43.830Z,4.50
2022-10-13T00:05:41.919Z,3.90
2022-10-13T00:10:38.581Z,4.38
2022-10-13T00:15:33.430Z,4.35
2022-10-13T00:20:26.713Z,3.55
2022-10-13T00:25:19.882Z,3.80
2022-10-13T00:30:12.655Z,4.13
2022-10-13T00:35:07.867Z,3.92
2022-10-13T00:40:01.913Z,3.58
2022-10-13T00:45:18.351Z,4.00
2022-10-13T00:50:15.606Z,4.00
2022-10-13T00:55:14.617Z,3.70
2022-10-13T01:00:09.166Z,3.75
2022-10-13T01:05:04.508Z,4.00
2022-10-13T01:09:57.957Z,3.65
2022-10-13T01:15:13.829Z,4.47
2022-10-13T01:20:25.372Z,4.10
2022-10-13T01:25:46.934Z,4.03
2022-10-13T01:30:49.645Z,4.28
2022-10-13T01:36:24.072Z,3.63
2022-10-13T01:41:23.841Z,5.05
2022-10-13T01:46:24.789Z,4.43
2022-10-13T01:51:20.769Z,4.40
2022-10-13T01:56:57.165Z,4.13
2022-10-13T02:02:17.846Z,4.10
2022-10-13T02:07:43.255Z,4.05
2022-10-13T02:13:00.363Z,4.13
2022-10-13T02:17:56.566Z,4.30
2022-10-13T02:22:56.596Z,4.03
2022-10-13T02:27:49.912Z,4.00
2022-10-13T02:32:43.832Z,3.50
2022-10-13T02:37:37.686Z,4.15
2022-10-13T02:42:31.023Z,4.25
2022-10-13T02:47:30.581Z,4.10
2022-10-13T02:52:25.013Z,4.18
2022-10-13T02:57:18.655Z,4.20
2022-10-13T03:02:14.484Z,3.83
2022-10-13T03:07:08.155Z,3.65
2022-10-13T03:12:01.873Z,3.92
2022-10-13T03:16:55.581Z,3.92
2022-10-13T03:21:48.483Z,4.18
2022-10-13T03:26:42.421Z,3.67
2022-10-13T03:31:36.372Z,4.30
2022-10-13T03:36:30.359Z,4.25
2022-10-13T03:41:24.531Z,4.38
2022-10-13T03:46:18.836Z,4.60
2022-10-13T03:51:16.697Z,4.68
2022-10-13T03:56:21.309Z,4.47
2022-10-13T04:01:18.014Z,5.22
2022-10-13T04:06:14.175Z,4.25
2022-10-13T04:11:11.005Z,4.20
2022-10-13T04:16:14.173Z,4.65
2022-10-13T04:21:17.491Z,4.72
2022-10-13T04:26:18.326Z,4.32
2022-10-13T04:36:06.313Z,4.40
2022-10-13T04:40:59.668Z,4.38
2022-10-13T04:45:54.399Z,4.75
2022-10-13T04:50:47.350Z,4.57
2022-10-13T04:55:41.785Z,4.45
2022-10-13T05:00:35.890Z,4.40
2022-10-13T05:05:29.476Z,4.47
2022-10-13T05:10:23.609Z,4.65
2022-10-13T05:15:17.377Z,4.47
2022-10-13T05:20:11.189Z,4.20
2022-10-13T05:25:04.536Z,4.25
2022-10-13T05:29:58.677Z,6.32
2022-10-13T05:34:52.130Z,6.95
2022-10-13T05:39:48.783Z,9.75
2022-10-13T05:44:42.978Z,9.90
2022-10-13T05:49:40.378Z,11.27
2022-10-13T05:54:42.223Z,11.18
2022-10-13T05:59:40.681Z,11.52
2022-10-13T06:04:42.329Z,10.70
2022-10-13T06:09:38.568Z,10.85
2022-10-13T06:14:36.277Z,11.20
2022-10-13T06:19:32.520Z,10.52
2022-10-13T06:24:33.675Z,9.70
2022-10-13T06:29:27.419Z,10.13
2022-10-13T06:34:20.491Z,9.90
2022-10-13T06:39:13.608Z,10.20
2022-10-13T06:44:07.355Z,9.98
2022-10-13T06:49:00.311Z,10.00
2022-10-13T06:53:57.119Z,10.27
2022-10-13T06:58:51.601Z,9.38
2022-10-13T07:03:45.078Z,11.00
2022-10-13T07:08:39.062Z,10.60
2022-10-13T07:13:36.358Z,10.88
2022-10-13T07:18:31.764Z,10.48
2022-10-13T07:23:25.484Z,9.90
2022-10-13T07:28:18.981Z,11.00
2022-10-13T07:33:13.717Z,10.40
2022-10-13T07:38:08.776Z,10.55
2022-10-13T07:43:02.421Z,10.73
2022-10-13T07:47:57.143Z,10.32
2022-10-13T07:52:50.153Z,16.80
2022-10-13T07:57:43.774Z,18.58
2022-10-13T08:02:37.852Z,16.63
2022-10-13T08:07:32.471Z,17.90
2022-10-13T08:12:26.175Z,19.85
2022-10-13T08:17:19.771Z,18.33
2022-10-13T08:22:13.332Z,18.98
2022-10-13T08:27:11.524Z,17.70
2022-10-13T08:32:05.254Z,17.30
2022-10-13T08:37:00.758Z,15.77
2022-10-13T08:41:58.090Z,15.50
2022-10-13T08:47:08.279Z,17.17
2022-10-13T08:52:06.068Z,17.02
2022-10-13T09:02:15.868Z,19.45
2022-10-13T09:07:16.889Z,18.30
2022-10-13T09:12:13.922Z,19.35
2022-10-13T09:17:24.368Z,18.88
2022-10-13T09:22:24.804Z,17.77
2022-10-13T09:27:18.356Z,18.05
2022-10-13T09:32:17.899Z,19.25
2022-10-13T09:37:26.196Z,17.17
2022-10-13T09:42:24.021Z,18.77
2022-10-13T09:47:26.431Z,18.60
2022-10-13T09:52:23.042Z,16.88
2022-10-13T09:57:32.598Z,18.50
2022-10-13T10:02:36.356Z,16.98
2022-10-13T10:07:32.600Z,14.20
2022-10-13T10:12:30.816Z,14.80
2022-10-13T10:17:38.615Z,14.13
2022-10-13T10:22:43.956Z,13.02
2022-10-13T10:27:45.457Z,12.60
2022-10-13T10:32:55.764Z,11.18
2022-10-13T10:38:18.935Z,11.05
2022-10-13T10:43:27.348Z,10.07
2022-10-13T10:48:24.400Z,9.38
2022-10-13T10:53:58.325Z,10.15
2022-10-13T10:58:51.764Z,9.88
2022-10-13T11:04:36.339Z,11.05
2022-10-13T11:10:02.958Z,11.35
2022-10-13T11:14:55.860Z,10.05
2022-10-13T11:19:50.297Z,12.55
2022-10-13T11:24:43.289Z,13.40
2022-10-13T11:29:50.011Z,21.48
2022-10-13T11:34:58.268Z,28.95
2022-10-13T11:40:11.209Z,24.75
2022-10-13T11:45:59.544Z,24.92
2022-10-13T11:50:52.221Z,18.90
2022-10-13T11:55:56.823Z,13.40
2022-10-13T12:00:59.193Z,11.50
2022-10-13T12:05:53.012Z,12.20
2022-10-13T12:10:46.422Z,13.02
2022-10-13T12:15:43.951Z,13.10
2022-10-13T12:20:37.627Z,12.85
2022-10-13T12:25:32.055Z,11.82
2022-10-13T12:30:31.155Z,11.77
2022-10-13T12:35:27.541Z,12.88
2022-10-13T12:40:21.596Z,12.40
2022-10-13T12:45:20.795Z,12.45
2022-10-13T12:50:26.042Z,11.98
2022-10-13T12:55:22.028Z,10.90
2022-10-13T13:00:24.763Z,12.23
2022-10-13T13:05:57.297Z,10.80
2022-10-13T13:11:04.796Z,10.60
2022-10-13T13:16:20.284Z,9.95
2022-10-13T13:21:19.344Z,10.27
2022-10-13T13:26:30.614Z,10.52
2022-10-13T13:31:26.077Z,10.23
2022-10-13T13:36:22.729Z,10.57
2022-10-13T13:41:18.489Z,10.77
2022-10-13T13:46:22.368Z,10.25
2022-10-13T13:51:16.562Z,10.98
2022-10-13T13:56:13.884Z,10.60
2022-10-13T14:01:07.385Z,11.13
2022-10-13T14:06:01.077Z,12.65
2022-10-13T14:10:54.479Z,12.45
2022-10-13T14:15:58.750Z,11.93
2022-10-13T14:20:52.672Z,11.43
2022-10-13T14:25:45.865Z,10.60
2022-10-13T14:30:42.618Z,10.00
2022-10-13T14:35:37.210Z,9.40
2022-10-13T14:40:30.953Z,9.00
2022-10-13T14:45:24.682Z,9.18
2022-10-13T14:50:17.796Z,8.80
2022-10-13T14:55:12.853Z,8.52
2022-10-13T15:00:07.623Z,7.82
2022-10-13T15:05:01.319Z,7.15
2022-10-13T15:10:11.750Z,7.30
2022-10-13T15:15:05.403Z,7.25
2022-10-13T15:19:59.351Z,7.38
2022-10-13T15:24:56.416Z,6.55
2022-10-13T15:29:49.675Z,6.25
2022-10-13T15:34:44.985Z,6.32
2022-10-13T15:39:39.938Z,6.55
2022-10-13T15:44:57.505Z,7.00
2022-10-13T15:49:47.381Z,6.38
2022-10-13T15:54:41.496Z,6.80
2022-10-13T15:59:35.807Z,7.00
2022-10-13T16:04:34.871Z,6.95
2022-10-13T16:09:31.011Z,7.38
2022-10-13T16:14:24.602Z,7.40
2022-10-13T16:19:18.808Z,7.03
2022-10-13T16:24:12.824Z,8.48
2022-10-13T16:29:07.029Z,8.77
2022-10-13T16:34:01.945Z,9.55
2022-10-13T16:38:55.789Z,9.30
2022-10-13T16:43:48.850Z,9.40
2022-10-13T16:48:43.512Z,9.73
2022-10-13T16:53:37.113Z,9.02
2022-10-13T16:58:30.917Z,9.88
2022-10-13T17:03:28.092Z,8.90
2022-10-13T17:08:22.233Z,10.45
2022-10-13T17:13:15.926Z,9.90
2022-10-13T17:18:10.877Z,10.13
2022-10-13T17:23:03.937Z,9.70
2022-10-13T17:27:58.166Z,9.95
2022-10-13T17:32:52.955Z,9.35
2022-10-13T17:37:48.932Z,10.73
2022-10-13T17:42:48.281Z,10.10
2022-10-13T17:47:49.792Z,9.77
2022-10-13T17:52:43.007Z,9.75
2022-10-13T17:57:36.773Z,9.82
2022-10-13T18:02:31.599Z,9.95
2022-10-13T18:07:25.436Z,9.77
2022-10-13T18:12:19.152Z,9.15
2022-10-13T18:17:13.043Z,8.95
2022-10-13T18:22:07.257Z,9.20
2022-10-13T18:27:01.627Z,10.43
2022-10-13T18:31:56.636Z,9.55
2022-10-13T18:36:54.041Z,9.35
2022-10-13T18:41:51.561Z,9.98
2022-10-13T18:46:45.151Z,9.52
2022-10-13T18:51:39.933Z,9.05
2022-10-13T18:56:34.874Z,9.73
2022-10-13T19:01:30.738Z,10.00
2022-10-13T19:06:27.550Z,9.27
2022-10-13T19:11:22.405Z,8.75
2022-10-13T19:16:18.914Z,8.77
2022-10-13T19:21:12.857Z,9.10
2022-10-13T19:26:18.836Z,9.38
2022-10-13T19:31:19.180Z,8.57
2022-10-13T19:36:20.341Z,9.25
2022-10-13T19:41:15.358Z,8.48
2022-10-13T19:46:10.619Z,8.65
2022-10-13T19:51:07.322Z,8.77
2022-10-13T19:56:00.469Z,9.13
2022-10-13T20:00:54.472Z,10.02
2022-10-13T20:05:48.101Z,8.73
2022-10-13T20:10:42.683Z,8.10
2022-10-13T20:15:40.851Z,8.68
2022-10-13T20:20:35.256Z,9.50
2022-10-13T20:25:28.570Z,8.55
2022-10-13T20:30:22.022Z,8.73
2022-10-13T20:35:15.101Z,8.65
2022-10-13T20:40:11.323Z,8.35
2022-10-13T20:45:05.835Z,8.15
2022-10-13T20:50:00.100Z,8.70
2022-10-13T20:54:54.368Z,9.10
2022-10-13T20:59:49.500Z,8.55
2022-10-13T21:04:43.552Z,8.27
2022-10-13T21:09:37.108Z,8.35
2022-10-13T21:14:34.969Z,8.20
2022-10-13T21:19:29.811Z,7.78
2022-10-13T21:24:24.061Z,8.55
2022-10-13T21:29:18.375Z,7.25
2022-10-13T21:34:15.524Z,8.40
2022-10-13T21:39:09.874Z,7.40
2022-10-13T21:44:04.137Z,7.80
2022-10-13T21:49:00.853Z,8.50
2022-10-13T21:53:56.851Z,7.75
2022-10-13T21:58:49.374Z,7.28
2022-10-13T22:03:47.075Z,7.22
2022-10-13T22:08:41.534Z,7.00
2022-10-13T22:13:47.062Z,7.78
2022-10-13T22:18:40.960Z,7.18
2022-10-13T22:23:38.809Z,6.15
2022-10-13T22:28:36.810Z,6.93
2022-10-13T22:33:30.325Z,7.10
2022-10-13T22:38:23.924Z,7.63
2022-10-13T22:43:17.802Z,6.88
2022-10-13T22:48:12.084Z,6.75
2022-10-13T22:53:10.229Z,6.95
2022-10-13T22:58:03.862Z,6.93
2022-10-13T23:02:56.953Z,6.32
2022-10-13T23:07:50.358Z,6.97
2022-10-13T23:12:43.948Z,7.00
2022-10-13T23:17:37.464Z,6.50
2022-10-13T23:22:31.446Z,6.75
2022-10-13T23:27:24.796Z,6.45
2022-10-13T23:32:18.299Z,6.65
2022-10-13T23:37:13.155Z,6.85
2022-10-13T23:42:08.123Z,6.10
2022-10-13T23:47:01.481Z,6.95
2022-10-13T23:51:55.283Z,6.18
2022-10-13T23:56:49.334Z,6.78
